createdAt,value
2019-02-14T00:00:00.639Z,4.17
2019-02-14T00:02:04.979Z,4.95
2019-02-14T00:04:08.896Z,4.87
2019-02-14T00:06:12.715Z,6.37
2019-02-14T00:08:16.922Z,6.55
2019-02-14T00:10:21.035Z,4.15
2019-02-14T00:12:25.231Z,8.83
2019-02-14T00:14:29.437Z,5.83
2019-02-14T00:16:33.559Z,4.62
2019-02-14T00:18:37.669Z,2.45
2019-02-14T00:20:41.505Z,3.10
2019-02-14T00:22:45.681Z,4.45
2019-02-14T00:24:49.783Z,4.20
2019-02-14T00:26:53.895Z,3.83
2019-02-14T00:28:57.716Z,3.77
2019-02-14T00:31:01.911Z,4.50
2019-02-14T00:33:06.030Z,4.00
2019-02-14T00:35:10.446Z,3.33
2019-02-14T00:37:14.549Z,4.10
2019-02-14T00:39:18.657Z,1.95
2019-02-14T00:41:22.475Z,3.37
2019-02-14T00:43:26.687Z,2.02
2019-02-14T00:45:30.795Z,3.85
2019-02-14T00:47:34.615Z,1.85
2019-02-14T00:49:38.801Z,1.72
2019-02-14T00:51:42.913Z,2.62
2019-02-14T00:53:46.723Z,2.87
2019-02-14T00:55:51.249Z,2.85
2019-02-14T00:57:55.345Z,4.58
2019-02-14T00:59:59.456Z,1.60
2019-02-14T01:02:03.661Z,4.00
2019-02-14T01:04:07.783Z,1.50
2019-02-14T01:06:11.599Z,2.65
2019-02-14T01:08:15.801Z,4.15
2019-02-14T01:10:20.003Z,1.87
2019-02-14T01:12:23.831Z,2.42
2019-02-14T01:14:28.031Z,4.55
2019-02-14T01:16:32.135Z,2.15
2019-02-14T01:18:36.255Z,3.27
2019-02-14T01:20:40.305Z,2.77
2019-02-14T01:22:46.318Z,2.40
2019-02-14T01:24:50.423Z,2.75
2019-02-14T01:26:54.249Z,4.22
2019-02-14T01:28:58.325Z,3.62
2019-02-14T01:31:02.459Z,3.05
2019-02-14T01:33:06.282Z,3.20
2019-02-14T01:35:10.339Z,2.95
2019-02-14T01:37:14.179Z,2.90
2019-02-14T01:39:18.278Z,6.50
2019-02-14T01:41:22.475Z,2.45
2019-02-14T01:43:26.687Z,2.45
2019-02-14T01:45:30.501Z,3.30
2019-02-14T01:47:34.705Z,3.02
2019-02-14T01:49:41.705Z,3.72
2019-02-14T01:51:45.800Z,2.62
2019-02-14T01:53:49.909Z,3.47
2019-02-14T01:55:53.755Z,2.77
2019-02-14T01:57:57.919Z,3.08
2019-02-14T02:00:01.914Z,3.17
2019-02-14T02:02:07.904Z,1.52
2019-02-14T02:04:12.003Z,1.82
2019-02-14T02:06:15.812Z,1.32
2019-02-14T02:08:20.113Z,1.45
2019-02-14T02:10:23.983Z,0.93
2019-02-14T02:12:28.068Z,1.27
2019-02-14T02:14:32.242Z,1.85
2019-02-14T02:16:36.340Z,0.88
2019-02-14T02:18:40.457Z,2.08
2019-02-14T02:20:44.566Z,1.25
2019-02-14T02:22:48.663Z,2.80
2019-02-14T02:24:52.799Z,0.60
2019-02-14T02:26:57.002Z,0.95
2019-02-14T02:29:01.102Z,1.00
2019-02-14T02:31:05.222Z,1.05
2019-02-14T02:33:09.058Z,0.72
2019-02-14T02:35:13.037Z,1.40
2019-02-14T02:37:17.133Z,0.62
2019-02-14T02:39:20.969Z,0.53
2019-02-14T02:41:25.068Z,0.20
2019-02-14T02:43:28.854Z,0.70
2019-02-14T02:45:35.727Z,0.70
2019-02-14T02:47:39.848Z,0.93
2019-02-14T02:49:43.679Z,1.27
2019-02-14T02:51:47.478Z,1.87
2019-02-14T02:53:51.669Z,3.20
2019-02-14T02:55:56.069Z,2.33
2019-02-14T02:58:00.195Z,1.80
2019-02-14T03:00:07.068Z,1.77
2019-02-14T03:02:10.902Z,2.35
2019-02-14T03:04:15.083Z,2.85
2019-02-14T03:06:18.902Z,3.40
2019-02-14T03:08:22.743Z,2.80
2019-02-14T03:10:29.868Z,2.58
2019-02-14T03:12:33.987Z,1.30
2019-02-14T03:14:38.208Z,2.00
2019-02-14T03:16:42.318Z,1.77
2019-02-14T03:18:46.134Z,0.85
2019-02-14T03:20:50.307Z,0.60
2019-02-14T03:22:54.798Z,1.20
2019-02-14T03:24:58.950Z,0.70
2019-02-14T03:27:03.526Z,0.93
2019-02-14T03:29:07.658Z,2.22
2019-02-14T03:31:11.796Z,8.33
2019-02-14T03:33:15.905Z,5.67
2019-02-14T03:35:20.284Z,3.83
2019-02-14T03:37:24.112Z,4.42
2019-02-14T03:39:28.270Z,4.45
2019-02-14T03:41:32.750Z,4.87
2019-02-14T03:43:36.580Z,1.60
2019-02-14T03:45:40.666Z,1.37
2019-02-14T03:47:44.874Z,0.70
2019-02-14T03:49:49.102Z,0.98
2019-02-14T03:51:52.634Z,1.03
2019-02-14T03:53:56.456Z,1.05
2019-02-14T03:56:00.596Z,1.17
2019-02-14T03:58:04.716Z,1.30
2019-02-14T04:00:17.316Z,1.45
2019-02-14T04:02:21.170Z,1.75
2019-02-14T04:04:25.328Z,5.10
2019-02-14T04:06:29.453Z,2.77
2019-02-14T04:08:34.570Z,1.95
2019-02-14T04:10:38.378Z,1.90
2019-02-14T04:12:42.566Z,2.15
2019-02-14T04:14:46.706Z,1.67
2019-02-14T04:16:53.040Z,1.75
2019-02-14T04:18:57.180Z,2.67
2019-02-14T04:21:01.394Z,2.27
2019-02-14T04:23:05.514Z,1.45
2019-02-14T04:25:12.743Z,1.05
2019-02-14T04:27:19.551Z,0.90
2019-02-14T04:29:25.297Z,0.90
2019-02-14T04:31:29.408Z,1.70
2019-02-14T04:33:33.524Z,1.95
2019-02-14T04:35:37.625Z,1.72
2019-02-14T04:37:41.461Z,0.93
2019-02-14T04:39:45.282Z,1.87
2019-02-14T04:41:49.465Z,1.77
2019-02-14T04:43:55.296Z,1.40
2019-02-14T04:45:59.412Z,0.88
2019-02-14T04:48:06.278Z,1.90
2019-02-14T04:50:11.692Z,1.27
2019-02-14T04:52:15.838Z,1.42
2019-02-14T04:54:19.948Z,1.55
2019-02-14T04:56:24.060Z,3.72
2019-02-14T04:58:27.871Z,0.95
2019-02-14T05:00:32.511Z,0.78
2019-02-14T05:02:37.809Z,2.33
2019-02-14T05:04:41.948Z,1.98
2019-02-14T05:06:45.754Z,0.90
2019-02-14T05:08:49.578Z,1.15
2019-02-14T05:10:53.740Z,0.98
2019-02-14T05:12:57.856Z,1.45
2019-02-14T05:15:02.674Z,1.52
2019-02-14T05:17:06.816Z,1.85
2019-02-14T05:19:10.924Z,0.72
2019-02-14T05:21:14.753Z,1.22
2019-02-14T05:23:18.936Z,1.32
2019-02-14T05:25:22.743Z,1.10
2019-02-14T05:27:26.944Z,1.67
2019-02-14T05:29:31.065Z,1.02
2019-02-14T05:31:35.283Z,2.25
2019-02-14T05:33:39.139Z,0.60
2019-02-14T05:35:43.278Z,1.42
2019-02-14T05:37:47.716Z,1.72
2019-02-14T05:39:51.807Z,1.47
2019-02-14T05:41:55.905Z,0.57
2019-02-14T05:44:00.028Z,1.17
2019-02-14T05:46:03.845Z,1.27
2019-02-14T05:48:07.946Z,0.60
2019-02-14T05:50:13.606Z,1.07
2019-02-14T05:52:17.424Z,0.78
2019-02-14T05:54:21.600Z,1.65
2019-02-14T05:56:25.814Z,1.35
2019-02-14T05:58:29.933Z,0.70
2019-02-14T06:00:35.020Z,0.40
2019-02-14T06:02:39.174Z,0.85
2019-02-14T06:04:43.279Z,0.78
2019-02-14T06:06:47.591Z,0.78
2019-02-14T06:08:51.701Z,0.68
2019-02-14T06:10:55.525Z,0.80
2019-02-14T06:12:59.622Z,1.02
2019-02-14T06:15:04.754Z,1.92
2019-02-14T06:17:08.894Z,1.15
2019-02-14T06:19:12.972Z,2.45
2019-02-14T06:21:17.203Z,1.82
2019-02-14T06:23:21.026Z,1.00
2019-02-14T06:25:24.824Z,1.67
2019-02-14T06:27:28.656Z,2.25
2019-02-14T06:29:32.646Z,2.33
2019-02-14T06:31:39.573Z,1.65
2019-02-14T06:33:44.379Z,1.25
2019-02-14T06:35:49.134Z,1.22
2019-02-14T06:37:54.058Z,1.65
2019-02-14T06:39:58.179Z,0.95
2019-02-14T06:42:02.283Z,1.67
2019-02-14T06:44:06.486Z,3.92
2019-02-14T06:46:12.749Z,4.85
2019-02-14T06:48:22.943Z,5.35
2019-02-14T06:50:34.561Z,1.65
2019-02-14T06:52:32.969Z,2.58
2019-02-14T06:54:37.087Z,1.62
2019-02-14T06:56:41.296Z,1.45
2019-02-14T06:58:45.405Z,2.10
2019-02-14T07:00:49.521Z,1.42
2019-02-14T07:02:53.725Z,2.12
2019-02-14T07:04:57.839Z,1.30
2019-02-14T07:07:01.954Z,0.65
2019-02-14T07:09:06.567Z,2.20
2019-02-14T07:11:10.391Z,1.62
2019-02-14T07:13:14.683Z,1.60
2019-02-14T07:15:18.792Z,1.30
2019-02-14T07:17:22.905Z,1.60
2019-02-14T07:19:26.713Z,1.67
2019-02-14T07:21:30.924Z,2.85
2019-02-14T07:23:34.742Z,2.10
2019-02-14T07:25:38.829Z,2.02
2019-02-14T07:27:42.948Z,3.60
2019-02-14T07:29:47.066Z,1.75
2019-02-14T07:31:51.265Z,1.52
2019-02-14T07:33:55.383Z,1.30
2019-02-14T07:35:59.505Z,1.27
2019-02-14T07:38:03.699Z,2.03
2019-02-14T07:40:12.794Z,3.05
2019-02-14T07:42:20.252Z,4.17
2019-02-14T07:44:26.057Z,1.20
2019-02-14T07:46:30.184Z,1.40
2019-02-14T07:48:33.999Z,3.42
2019-02-14T07:50:37.821Z,2.17
2019-02-14T07:52:41.999Z,0.80
2019-02-14T07:54:47.967Z,0.62
2019-02-14T07:56:52.586Z,1.67
2019-02-14T07:58:56.891Z,1.07
2019-02-14T08:01:00.997Z,1.27
2019-02-14T08:03:04.946Z,2.72
2019-02-14T08:05:10.141Z,0.82
2019-02-14T08:07:13.957Z,1.42
2019-02-14T08:09:17.779Z,1.92
2019-02-14T08:11:21.654Z,0.98
2019-02-14T08:13:25.842Z,1.22
2019-02-14T08:15:31.834Z,3.10
2019-02-14T08:17:36.033Z,1.77
2019-02-14T08:19:39.839Z,5.12
2019-02-14T08:21:44.047Z,2.10
2019-02-14T08:23:48.143Z,2.80
2019-02-14T08:25:52.263Z,2.85
2019-02-14T08:27:59.949Z,4.40
2019-02-14T08:30:05.705Z,5.37
2019-02-14T08:32:10.429Z,2.92
2019-02-14T08:34:14.651Z,3.30
2019-02-14T08:36:18.470Z,2.40
2019-02-14T08:38:22.656Z,4.20
2019-02-14T08:40:32.127Z,3.72
2019-02-14T08:42:36.301Z,3.00
2019-02-14T08:44:40.527Z,2.10
2019-02-14T08:46:44.347Z,2.65
2019-02-14T08:48:48.152Z,2.35
2019-02-14T08:50:52.348Z,2.37
2019-02-14T08:52:56.432Z,1.87
2019-02-14T08:55:00.556Z,1.37
2019-02-14T08:57:04.415Z,4.15
2019-02-14T08:59:08.583Z,1.90
2019-02-14T09:01:14.733Z,3.85
2019-02-14T09:03:18.859Z,4.42
2019-02-14T09:05:23.059Z,5.15
2019-02-14T09:07:27.165Z,3.50
2019-02-14T09:09:31.381Z,4.10
2019-02-14T09:11:35.508Z,4.28
2019-02-14T09:13:39.615Z,3.40
2019-02-14T09:15:43.815Z,3.42
2019-02-14T09:17:47.918Z,3.77
2019-02-14T09:19:51.772Z,3.50
2019-02-14T09:21:57.989Z,3.35
2019-02-14T09:24:02.105Z,4.40
2019-02-14T09:26:06.315Z,3.87
2019-02-14T09:28:10.529Z,3.37
2019-02-14T09:30:16.170Z,2.98
2019-02-14T09:32:22.008Z,3.75
2019-02-14T09:34:26.240Z,3.00
2019-02-14T09:36:30.352Z,4.05
2019-02-14T09:38:34.552Z,5.95
2019-02-14T09:40:38.663Z,5.22
2019-02-14T09:42:42.982Z,4.83
2019-02-14T09:44:47.196Z,4.25
2019-02-14T09:46:51.012Z,4.53
2019-02-14T09:48:55.093Z,5.87
2019-02-14T09:50:59.214Z,3.37
2019-02-14T09:53:03.029Z,4.65
2019-02-14T09:55:09.185Z,4.37
2019-02-14T09:57:14.482Z,3.37
2019-02-14T09:59:18.640Z,3.72
2019-02-14T10:01:22.747Z,3.92
2019-02-14T10:03:26.598Z,3.00
2019-02-14T10:05:30.752Z,3.72
2019-02-14T10:07:34.548Z,3.37
2019-02-14T10:09:38.769Z,5.10
2019-02-14T10:11:42.578Z,4.15
2019-02-14T10:13:46.348Z,3.35
2019-02-14T10:15:50.472Z,4.60
2019-02-14T10:17:54.592Z,4.72
2019-02-14T10:19:58.686Z,4.37
2019-02-14T10:22:02.813Z,5.12
2019-02-14T10:24:07.026Z,7.40
2019-02-14T10:26:11.134Z,7.70
2019-02-14T10:28:15.346Z,7.47
2019-02-14T10:30:21.227Z,7.25
2019-02-14T10:32:25.306Z,5.37
2019-02-14T10:34:29.416Z,9.75
2019-02-14T10:36:33.214Z,8.40
2019-02-14T10:38:37.330Z,7.95
2019-02-14T10:40:41.436Z,8.05
2019-02-14T10:42:45.244Z,9.85
2019-02-14T10:44:49.069Z,5.67
2019-02-14T10:46:53.154Z,5.00
2019-02-14T10:48:57.268Z,6.65
2019-02-14T10:51:01.094Z,8.30
2019-02-14T10:53:05.282Z,8.08
2019-02-14T10:55:11.917Z,6.55
2019-02-14T10:57:15.756Z,8.13
2019-02-14T10:59:19.858Z,9.00
2019-02-14T11:01:23.982Z,7.83
2019-02-14T11:03:30.232Z,6.65
2019-02-14T11:05:35.599Z,6.55
2019-02-14T11:07:39.472Z,6.83
2019-02-14T11:09:43.388Z,8.57
2019-02-14T11:11:47.294Z,6.43
2019-02-14T11:13:51.089Z,5.83
2019-02-14T11:15:55.002Z,8.73
2019-02-14T11:17:58.804Z,6.20
2019-02-14T11:20:02.700Z,9.10
2019-02-14T11:22:06.236Z,9.57
2019-02-14T11:24:10.041Z,6.13
2019-02-14T11:26:14.012Z,8.70
2019-02-14T11:28:17.816Z,6.77
2019-02-14T11:30:21.625Z,6.10
2019-02-14T11:32:25.136Z,7.90
2019-02-14T11:34:29.029Z,8.13
2019-02-14T11:36:32.834Z,5.83
2019-02-14T11:38:40.552Z,8.23
2019-02-14T11:40:43.268Z,7.17
2019-02-14T11:42:47.092Z,9.63
2019-02-14T11:44:50.902Z,10.13
2019-02-14T11:46:54.806Z,6.93
2019-02-14T11:48:58.719Z,14.27
2019-02-14T11:51:04.048Z,9.03
2019-02-14T11:53:13.859Z,11.30
2019-02-14T11:55:13.720Z,8.10
2019-02-14T11:57:17.606Z,10.37
2019-02-14T11:59:21.521Z,12.37
2019-02-14T12:01:25.042Z,11.37
2019-02-14T12:03:28.554Z,10.93
2019-02-14T12:05:32.113Z,9.20
2019-02-14T12:07:35.635Z,11.83
2019-02-14T12:09:39.507Z,9.37
2019-02-14T12:11:43.055Z,8.07
2019-02-14T12:13:46.924Z,7.07
2019-02-14T12:15:50.719Z,9.07
2019-02-14T12:17:54.614Z,9.67
2019-02-14T12:19:58.426Z,12.70
2019-02-14T12:22:02.321Z,10.40
2019-02-14T12:24:06.147Z,11.20
2019-02-14T12:26:10.042Z,10.53
2019-02-14T12:28:13.578Z,10.90
2019-02-14T12:30:17.114Z,11.87
2019-02-14T12:32:20.642Z,12.33
2019-02-14T12:34:24.545Z,13.53
2019-02-14T12:36:28.456Z,13.03
2019-02-14T12:38:31.955Z,11.23
2019-02-14T12:40:35.832Z,13.17
2019-02-14T12:42:39.746Z,13.23
2019-02-14T12:44:43.640Z,15.40
2019-02-14T12:46:47.179Z,14.93
2019-02-14T12:48:50.716Z,28.73
2019-02-14T12:50:54.554Z,12.80
2019-02-14T12:53:02.143Z,10.70
2019-02-14T12:55:07.178Z,13.00
2019-02-14T12:57:13.026Z,11.90
2019-02-14T12:59:19.206Z,11.30
2019-02-14T13:01:22.364Z,13.10
2019-02-14T13:03:25.890Z,13.63
2019-02-14T13:05:30.287Z,13.67
2019-02-14T13:07:34.181Z,13.00
2019-02-14T13:09:39.094Z,10.63
2019-02-14T13:11:42.920Z,14.10
2019-02-14T13:13:50.073Z,12.97
2019-02-14T13:15:52.374Z,12.07
2019-02-14T13:17:56.176Z,10.73
2019-02-14T13:20:00.180Z,11.43
2019-02-14T13:22:04.386Z,9.40
2019-02-14T13:24:08.283Z,12.40
2019-02-14T13:26:11.871Z,10.53
2019-02-14T13:28:15.456Z,9.73
2019-02-14T13:30:22.060Z,9.37
2019-02-14T13:32:25.966Z,10.63
2019-02-14T13:34:32.850Z,9.27
2019-02-14T13:36:36.735Z,9.07
2019-02-14T13:38:40.554Z,9.77
2019-02-14T13:40:44.348Z,8.73
2019-02-14T13:42:48.368Z,8.93
2019-02-14T13:44:52.164Z,11.70
2019-02-14T13:46:55.678Z,9.27
2019-02-14T13:48:59.225Z,9.70
2019-02-14T13:51:03.070Z,7.43
2019-02-14T13:53:06.596Z,6.87
2019-02-14T13:55:10.922Z,11.20
2019-02-14T13:57:14.770Z,8.07
2019-02-14T13:59:18.620Z,8.77
2019-02-14T14:01:22.250Z,10.40
2019-02-14T14:03:26.079Z,15.73
2019-02-14T14:05:29.891Z,9.03
2019-02-14T14:07:40.192Z,10.47
2019-02-14T14:09:39.342Z,10.53
2019-02-14T14:11:45.584Z,8.87
2019-02-14T14:13:49.159Z,8.53
2019-02-14T14:15:52.703Z,10.43
2019-02-14T14:17:56.582Z,8.40
2019-02-14T14:20:00.528Z,10.50
2019-02-14T14:22:04.521Z,10.53
2019-02-14T14:24:08.036Z,7.27
2019-02-14T14:26:11.917Z,8.40
2019-02-14T14:28:15.816Z,10.33
2019-02-14T14:30:19.340Z,12.70
2019-02-14T14:32:22.867Z,9.37
2019-02-14T14:34:26.393Z,7.80
2019-02-14T14:36:29.923Z,9.40
2019-02-14T14:38:33.801Z,8.63
2019-02-14T14:40:37.615Z,10.83
2019-02-14T14:42:51.957Z,9.87
2019-02-14T14:44:55.866Z,10.83
2019-02-14T14:46:59.403Z,6.67
2019-02-14T14:49:04.794Z,9.60
2019-02-14T14:51:08.720Z,9.60
2019-02-14T14:53:12.307Z,9.77
2019-02-14T14:55:16.205Z,8.17
2019-02-14T14:57:20.128Z,5.83
2019-02-14T14:59:24.039Z,11.30
2019-02-14T15:01:27.588Z,7.83
2019-02-14T15:03:34.399Z,18.53
2019-02-14T15:05:38.303Z,11.83
2019-02-14T15:07:42.222Z,8.90
2019-02-14T15:09:46.953Z,16.17
2019-02-14T15:11:51.031Z,7.73
2019-02-14T15:13:56.232Z,7.30
2019-02-14T15:16:01.270Z,6.60
2019-02-14T15:18:05.229Z,5.93
2019-02-14T15:20:10.851Z,4.87
2019-02-14T15:22:14.664Z,8.17
2019-02-14T15:24:18.464Z,5.60
2019-02-14T15:26:22.277Z,5.20
2019-02-14T15:28:25.805Z,4.93
2019-02-14T15:30:29.346Z,3.77
2019-02-14T15:32:33.259Z,7.60
2019-02-14T15:34:37.064Z,3.57
2019-02-14T15:36:40.597Z,3.50
2019-02-14T15:38:44.477Z,6.20
2019-02-14T15:40:48.247Z,5.67
2019-02-14T15:42:52.062Z,3.53
2019-02-14T15:44:55.603Z,3.50
2019-02-14T15:46:59.677Z,4.42
2019-02-14T15:49:03.491Z,5.58
2019-02-14T15:51:09.047Z,4.62
2019-02-14T15:53:13.601Z,7.53
2019-02-14T15:55:19.097Z,3.80
2019-02-14T15:57:23.253Z,5.62
2019-02-14T15:59:28.916Z,5.92
2019-02-14T16:01:33.157Z,3.87
2019-02-14T16:03:38.537Z,4.20
2019-02-14T16:05:43.131Z,5.00
2019-02-14T16:07:47.331Z,4.92
2019-02-14T16:09:51.554Z,5.85
2019-02-14T16:11:57.749Z,5.12
2019-02-14T16:14:01.510Z,3.92
2019-02-14T16:16:05.343Z,5.67
2019-02-14T16:18:09.536Z,5.20
2019-02-14T16:20:15.382Z,5.22
2019-02-14T16:22:19.901Z,5.42
2019-02-14T16:24:23.711Z,5.90
2019-02-14T16:26:27.513Z,4.85
2019-02-14T16:28:31.725Z,6.53
2019-02-14T16:30:35.827Z,5.33
2019-02-14T16:32:39.662Z,4.30
2019-02-14T16:34:43.841Z,4.72
2019-02-14T16:36:47.656Z,5.42
2019-02-14T16:38:56.390Z,3.95
2019-02-14T16:41:00.169Z,3.22
2019-02-14T16:43:04.401Z,4.12
2019-02-14T16:45:09.151Z,3.52
2019-02-14T16:47:13.305Z,4.40
2019-02-14T16:49:17.370Z,4.70
2019-02-14T16:51:23.651Z,3.20
2019-02-14T16:53:27.782Z,4.70
2019-02-14T16:55:31.678Z,2.60
2019-02-14T16:57:35.819Z,3.40
2019-02-14T16:59:39.625Z,2.10
2019-02-14T17:01:43.649Z,5.33
2019-02-14T17:03:47.769Z,3.40
2019-02-14T17:05:51.750Z,2.70
2019-02-14T17:07:56.253Z,2.85
2019-02-14T17:10:00.479Z,4.55
2019-02-14T17:12:04.404Z,3.08
2019-02-14T17:14:08.196Z,3.55
2019-02-14T17:16:13.626Z,3.55
2019-02-14T17:18:19.169Z,3.80
2019-02-14T17:20:27.539Z,3.47
2019-02-14T17:22:31.702Z,4.10
2019-02-14T17:24:36.106Z,3.33
2019-02-14T17:26:39.947Z,1.95
2019-02-14T17:28:44.121Z,2.67
2019-02-14T17:30:48.272Z,2.33
2019-02-14T17:32:54.744Z,3.10
2019-02-14T17:34:58.820Z,2.37
2019-02-14T17:37:02.616Z,5.70
2019-02-14T17:39:07.173Z,4.72
2019-02-14T17:41:11.493Z,3.83
2019-02-14T17:43:15.302Z,2.45
2019-02-14T17:45:19.225Z,3.45
2019-02-14T17:47:23.031Z,3.72
2019-02-14T17:49:26.841Z,2.98
2019-02-14T17:51:31.086Z,1.25
2019-02-14T17:53:35.214Z,1.20
2019-02-14T17:56:21.794Z,1.50
2019-02-14T17:58:27.745Z,1.42
2019-02-14T18:00:32.191Z,0.80
2019-02-14T18:02:36.377Z,1.20
2019-02-14T18:04:40.505Z,0.90
2019-02-14T18:06:44.587Z,0.90
2019-02-14T18:08:48.721Z,0.90
2019-02-14T18:10:54.858Z,0.60
2019-02-14T18:12:58.356Z,0.70
2019-02-14T18:15:02.168Z,1.07
2019-02-14T18:17:06.382Z,0.80
2019-02-14T18:19:10.491Z,1.30
2019-02-14T18:21:14.591Z,0.90
2019-02-14T18:23:18.907Z,0.75
2019-02-14T18:25:23.006Z,1.25
2019-02-14T18:27:51.120Z,0.60
2019-02-14T18:29:55.290Z,1.30
2019-02-14T18:31:59.425Z,1.50
2019-02-14T18:34:03.532Z,3.10
2019-02-14T18:36:07.947Z,1.55
2019-02-14T18:38:11.754Z,4.78
2019-02-14T18:40:15.984Z,5.17
2019-02-14T18:42:19.871Z,2.90
2019-02-14T18:44:23.710Z,1.70
2019-02-14T18:46:27.556Z,3.55
2019-02-14T18:48:31.805Z,2.70
2019-02-14T18:50:35.994Z,3.08
2019-02-14T18:52:40.234Z,3.45
2019-02-14T18:54:44.030Z,2.98
2019-02-14T18:56:48.134Z,3.25
2019-02-14T18:58:53.760Z,3.22
2019-02-14T19:00:57.596Z,5.08
2019-02-14T19:03:01.781Z,3.77
2019-02-14T19:05:08.134Z,4.55
2019-02-14T19:07:12.258Z,5.17
2019-02-14T19:09:16.076Z,9.30
2019-02-14T19:11:19.896Z,7.35
2019-02-14T19:13:24.080Z,5.12
2019-02-14T19:15:27.967Z,4.83
2019-02-14T19:17:31.824Z,5.53
2019-02-14T19:19:35.652Z,8.90
2019-02-14T19:21:39.479Z,7.28
2019-02-14T19:23:43.328Z,7.37
2019-02-14T19:25:47.525Z,6.42
2019-02-14T19:27:51.398Z,9.68
2019-02-14T19:29:56.162Z,7.95
2019-02-14T19:32:02.304Z,10.38
2019-02-14T19:34:06.524Z,11.45
2019-02-14T19:36:10.355Z,10.40
2019-02-14T19:38:14.193Z,9.70
2019-02-14T19:40:18.064Z,10.32
2019-02-14T19:42:21.909Z,10.55
2019-02-14T19:44:26.046Z,14.45
2019-02-14T19:46:31.801Z,12.73
2019-02-14T19:48:37.198Z,14.93
2019-02-14T19:50:41.544Z,14.07
2019-02-14T19:52:45.754Z,16.48
2019-02-14T19:54:49.884Z,14.25
2019-02-14T19:56:55.253Z,14.90
2019-02-14T19:58:59.420Z,15.18
2019-02-14T20:01:04.462Z,15.23
2019-02-14T20:03:08.659Z,15.05
2019-02-14T20:05:16.396Z,15.63
2019-02-14T20:07:20.565Z,20.17
2019-02-14T20:09:24.464Z,17.23
2019-02-14T20:11:36.179Z,15.53
2019-02-14T20:13:34.255Z,13.62
2019-02-14T20:15:38.082Z,16.52
2019-02-14T20:17:42.088Z,15.85
2019-02-14T20:19:45.922Z,17.52
2019-02-14T20:21:51.762Z,15.90
2019-02-14T20:23:55.562Z,15.08
2019-02-14T20:25:59.402Z,13.43
2019-02-14T20:28:03.233Z,15.25
2019-02-14T20:30:09.274Z,15.90
2019-02-14T20:32:13.478Z,17.73
2019-02-14T20:34:18.844Z,17.35
2019-02-14T20:36:23.018Z,16.20
2019-02-14T20:38:26.838Z,19.90
2019-02-14T20:40:32.158Z,18.92
2019-02-14T20:42:36.372Z,14.90
2019-02-14T20:44:40.446Z,12.13
2019-02-14T20:46:44.595Z,9.33
2019-02-14T20:48:48.702Z,9.35
2019-02-14T20:50:52.830Z,11.22
2019-02-14T20:52:57.223Z,10.25
2019-02-14T20:55:01.092Z,12.53
2019-02-14T20:57:05.371Z,11.75
2019-02-14T20:59:09.572Z,13.03
2019-02-14T21:01:13.778Z,11.95
2019-02-14T21:03:18.016Z,12.33
2019-02-14T21:05:22.209Z,12.75
2019-02-14T21:07:26.318Z,13.98
2019-02-14T21:09:30.142Z,9.98
2019-02-14T21:11:33.990Z,10.50
2019-02-14T21:13:37.807Z,10.13
2019-02-14T21:15:41.622Z,9.48
2019-02-14T21:17:45.746Z,10.38
2019-02-14T21:19:49.850Z,12.80
2019-02-14T21:21:53.977Z,13.28
2019-02-14T21:23:57.810Z,11.70
2019-02-14T21:26:02.099Z,11.48
2019-02-14T21:28:06.291Z,7.25
2019-02-14T21:30:14.518Z,9.38
2019-02-14T21:32:18.305Z,9.78
2019-02-14T21:34:25.606Z,7.12
2019-02-14T21:36:29.804Z,8.70
2019-02-14T21:38:33.920Z,8.58
2019-02-14T21:40:38.040Z,9.00
2019-02-14T21:42:42.125Z,7.53
2019-02-14T21:44:46.240Z,7.62
2019-02-14T21:46:50.369Z,9.10
2019-02-14T21:48:57.217Z,6.37
2019-02-14T21:51:01.331Z,8.33
2019-02-14T21:53:06.835Z,9.40
2019-02-14T21:55:14.419Z,10.18
2019-02-14T21:57:17.826Z,11.53
2019-02-14T21:59:21.999Z,8.25
2019-02-14T22:01:26.968Z,10.03
2019-02-14T22:03:30.773Z,7.00
2019-02-14T22:05:34.613Z,9.35
2019-02-14T22:07:40.270Z,7.85
2019-02-14T22:09:44.367Z,7.90
2019-02-14T22:11:48.574Z,10.38
2019-02-14T22:13:52.425Z,9.63
2019-02-14T22:15:56.201Z,9.73
2019-02-14T22:18:00.032Z,9.00
2019-02-14T22:20:06.442Z,9.30
2019-02-14T22:22:10.759Z,9.25
2019-02-14T22:24:14.606Z,10.28
2019-02-14T22:26:18.423Z,10.58
2019-02-14T22:28:23.206Z,10.32
2019-02-14T22:30:27.401Z,9.10
2019-02-14T22:32:31.532Z,8.63
2019-02-14T22:34:35.629Z,7.72
2019-02-14T22:36:39.729Z,7.87
2019-02-14T22:38:45.913Z,8.98
2019-02-14T22:40:49.723Z,11.00
2019-02-14T22:42:53.569Z,11.57
2019-02-14T22:44:57.715Z,9.03
2019-02-14T22:47:01.842Z,10.80
2019-02-14T22:49:06.043Z,10.43
2019-02-14T22:51:10.161Z,9.80
2019-02-14T22:53:14.297Z,11.95
2019-02-14T22:55:18.485Z,11.63
2019-02-14T22:57:22.575Z,10.70
2019-02-14T22:59:26.700Z,11.15
2019-02-14T23:01:31.206Z,8.93
2019-02-14T23:03:35.321Z,8.05
2019-02-14T23:05:39.158Z,12.18
2019-02-14T23:07:43.331Z,9.20
2019-02-14T23:09:47.451Z,10.15
2019-02-14T23:11:51.261Z,11.33
2019-02-14T23:13:55.477Z,10.23
2019-02-14T23:15:59.307Z,10.28
2019-02-14T23:18:03.795Z,9.90
2019-02-14T23:20:08.117Z,9.90
2019-02-14T23:22:11.929Z,7.42
2019-02-14T23:24:16.019Z,9.68
2019-02-14T23:26:22.465Z,9.60
2019-02-14T23:28:26.607Z,11.20
2019-02-14T23:30:30.995Z,9.60
2019-02-14T23:32:35.121Z,7.87
2019-02-14T23:34:39.230Z,13.00
2019-02-14T23:36:43.369Z,8.98
2019-02-14T23:38:47.191Z,7.87
2019-02-14T23:40:51.003Z,8.73
2019-02-14T23:42:54.799Z,7.92
2019-02-14T23:44:58.960Z,9.88
2019-02-14T23:47:03.689Z,8.00
2019-02-14T23:49:07.912Z,10.70
2019-02-14T23:51:11.786Z,10.75
2019-02-14T23:53:15.933Z,11.68
2019-02-14T23:55:20.023Z,8.58
2019-02-14T23:57:24.248Z,11.20
2019-02-14T23:59:28.445Z,10.53
